sensor_id;sensor_type;location;lat;lon;timestamp;P1;durP1;ratioP1;P2;durP2;ratioP2
39016;SDS011;24784;45.582;5.276;2022-09-09T00:04:34;4.30;;;1.38;;
39016;SDS011;24784;45.582;5.276;2022-09-09T00:09:49;5.72;;;1.50;;
39016;SDS011;24784;45.582;5.276;2022-09-09T00:14:58;2.97;;;1.20;;
39016;SDS011;24784;45.582;5.276;2022-09-09T00:17:49;4.47;;;1.30;;
39016;SDS011;24784;45.582;5.276;2022-09-09T00:22:53;7.38;;;1.15;;
39016;SDS011;24784;45.582;5.276;2022-09-09T00:25:32;4.60;;;1.30;;
39016;SDS011;24784;45.582;5.276;2022-09-09T00:28:02;6.82;;;1.80;;
39016;SDS011;24784;45.582;5.276;2022-09-09T00:30:34;6.72;;;1.42;;
39016;SDS011;24784;45.582;5.276;2022-09-09T00:33:09;4.88;;;1.50;;
39016;SDS011;24784;45.582;5.276;2022-09-09T00:35:42;2.85;;;1.42;;
39016;SDS011;24784;45.582;5.276;2022-09-09T00:38:27;4.45;;;1.40;;
39016;SDS011;24784;45.582;5.276;2022-09-09T00:43:36;5.28;;;1.10;;
39016;SDS011;24784;45.582;5.276;2022-09-09T00:46:21;9.88;;;2.40;;
39016;SDS011;24784;45.582;5.276;2022-09-09T00:54:30;10.45;;;1.42;;
39016;SDS011;24784;45.582;5.276;2022-09-09T00:57:17;4.57;;;1.15;;
39016;SDS011;24784;45.582;5.276;2022-09-09T00:59:50;10.27;;;1.65;;
39016;SDS011;24784;45.582;5.276;2022-09-09T01:02:29;6.57;;;1.70;;
39016;SDS011;24784;45.582;5.276;2022-09-09T01:05:20;4.45;;;1.50;;
39016;SDS011;24784;45.582;5.276;2022-09-09T01:07:51;2.08;;;1.40;;
39016;SDS011;24784;45.582;5.276;2022-09-09T01:10:26;6.85;;;2.13;;
39016;SDS011;24784;45.582;5.276;2022-09-09T01:13:15;7.07;;;1.48;;
39016;SDS011;24784;45.582;5.276;2022-09-09T01:15:51;5.07;;;1.33;;
39016;SDS011;24784;45.582;5.276;2022-09-09T01:18:21;6.45;;;1.38;;
39016;SDS011;24784;45.582;5.276;2022-09-09T01:21:05;5.78;;;1.30;;
39016;SDS011;24784;45.582;5.276;2022-09-09T01:26:09;3.10;;;1.40;;
39016;SDS011;24784;45.582;5.276;2022-09-09T01:28:54;6.90;;;1.58;;
39016;SDS011;24784;45.582;5.276;2022-09-09T01:31:31;8.00;;;1.73;;
39016;SDS011;24784;45.582;5.276;2022-09-09T01:34:01;2.38;;;1.38;;
39016;SDS011;24784;45.582;5.276;2022-09-09T01:36:29;4.05;;;1.40;;
39016;SDS011;24784;45.582;5.276;2022-09-09T01:39:03;3.72;;;1.23;;
39016;SDS011;24784;45.582;5.276;2022-09-09T01:41:29;5.05;;;1.52;;
39016;SDS011;24784;45.582;5.276;2022-09-09T01:43:55;3.60;;;1.33;;
39016;SDS011;24784;45.582;5.276;2022-09-09T01:46:21;6.55;;;1.90;;
39016;SDS011;24784;45.582;5.276;2022-09-09T01:48:48;3.42;;;1.30;;
39016;SDS011;24784;45.582;5.276;2022-09-09T01:51:18;3.22;;;1.40;;
39016;SDS011;24784;45.582;5.276;2022-09-09T01:53:44;4.97;;;1.95;;
39016;SDS011;24784;45.582;5.276;2022-09-09T01:56:21;8.43;;;1.35;;
39016;SDS011;24784;45.582;5.276;2022-09-09T02:08:09;6.63;;;1.58;;
39016;SDS011;24784;45.582;5.276;2022-09-09T02:12:47;5.38;;;1.30;;
39016;SDS011;24784;45.582;5.276;2022-09-09T02:15:30;3.60;;;1.35;;
39016;SDS011;24784;45.582;5.276;2022-09-09T02:18:01;2.72;;;1.35;;
39016;SDS011;24784;45.582;5.276;2022-09-09T02:20:33;3.50;;;1.40;;
39016;SDS011;24784;45.582;5.276;2022-09-09T02:23:01;10.20;;;2.25;;
39016;SDS011;24784;45.582;5.276;2022-09-09T02:25:28;4.18;;;1.27;;
39016;SDS011;24784;45.582;5.276;2022-09-09T02:27:55;2.78;;;1.35;;
39016;SDS011;24784;45.582;5.276;2022-09-09T02:30:25;6.35;;;1.52;;
39016;SDS011;24784;45.582;5.276;2022-09-09T02:32:54;3.60;;;1.38;;
39016;SDS011;24784;45.582;5.276;2022-09-09T02:35:23;5.15;;;1.50;;
39016;SDS011;24784;45.582;5.276;2022-09-09T02:37:51;6.95;;;1.75;;
39016;SDS011;24784;45.582;5.276;2022-09-09T02:40:19;3.38;;;1.50;;
39016;SDS011;24784;45.582;5.276;2022-09-09T02:42:47;4.78;;;1.38;;
39016;SDS011;24784;45.582;5.276;2022-09-09T02:45:16;4.47;;;1.30;;
39016;SDS011;24784;45.582;5.276;2022-09-09T02:47:57;10.52;;;2.05;;
39016;SDS011;24784;45.582;5.276;2022-09-09T02:50:57;1.75;;;1.35;;
39016;SDS011;24784;45.582;5.276;2022-09-09T02:53:42;5.55;;;2.20;;
39016;SDS011;24784;45.582;5.276;2022-09-09T02:56:16;5.68;;;1.60;;
39016;SDS011;24784;45.582;5.276;2022-09-09T02:58:45;3.25;;;1.55;;
39016;SDS011;24784;45.582;5.276;2022-09-09T03:01:11;6.00;;;1.33;;
39016;SDS011;24784;45.582;5.276;2022-09-09T03:03:37;1.88;;;1.20;;
39016;SDS011;24784;45.582;5.276;2022-09-09T03:06:03;3.55;;;2.00;;
39016;SDS011;24784;45.582;5.276;2022-09-09T03:08:30;6.15;;;1.23;;
39016;SDS011;24784;45.582;5.276;2022-09-09T03:10:58;2.80;;;1.27;;
39016;SDS011;24784;45.582;5.276;2022-09-09T03:13:26;5.57;;;1.48;;
39016;SDS011;24784;45.582;5.276;2022-09-09T03:15:52;7.38;;;1.55;;
39016;SDS011;24784;45.582;5.276;2022-09-09T03:18:17;5.03;;;1.30;;
39016;SDS011;24784;45.582;5.276;2022-09-09T03:20:43;7.85;;;1.73;;
39016;SDS011;24784;45.582;5.276;2022-09-09T03:23:11;3.55;;;1.40;;
39016;SDS011;24784;45.582;5.276;2022-09-09T03:25:38;6.93;;;1.52;;
39016;SDS011;24784;45.582;5.276;2022-09-09T03:28:04;7.05;;;1.40;;
39016;SDS011;24784;45.582;5.276;2022-09-09T03:30:30;8.25;;;1.30;;
39016;SDS011;24784;45.582;5.276;2022-09-09T03:32:56;3.65;;;1.40;;
39016;SDS011;24784;45.582;5.276;2022-09-09T03:35:22;5.70;;;1.48;;
39016;SDS011;24784;45.582;5.276;2022-09-09T03:37:48;1.88;;;1.17;;
39016;SDS011;24784;45.582;5.276;2022-09-09T03:40:15;3.47;;;1.40;;
39016;SDS011;24784;45.582;5.276;2022-09-09T03:42:40;1.65;;;1.27;;
39016;SDS011;24784;45.582;5.276;2022-09-09T03:45:07;11.02;;;1.60;;
39016;SDS011;24784;45.582;5.276;2022-09-09T03:47:34;6.10;;;1.35;;
39016;SDS011;24784;45.582;5.276;2022-09-09T03:50:00;5.45;;;1.70;;
39016;SDS011;24784;45.582;5.276;2022-09-09T03:52:26;9.55;;;2.13;;
39016;SDS011;24784;45.582;5.276;2022-09-09T03:54:52;1.63;;;1.20;;
39016;SDS011;24784;45.582;5.276;2022-09-09T03:57:22;2.10;;;1.35;;
39016;SDS011;24784;45.582;5.276;2022-09-09T03:59:47;3.15;;;1.20;;
39016;SDS011;24784;45.582;5.276;2022-09-09T04:02:13;5.80;;;1.40;;
39016;SDS011;24784;45.582;5.276;2022-09-09T04:04:39;3.90;;;1.13;;
39016;SDS011;24784;45.582;5.276;2022-09-09T04:07:05;9.98;;;1.48;;
39016;SDS011;24784;45.582;5.276;2022-09-09T04:09:32;7.43;;;1.50;;
39016;SDS011;24784;45.582;5.276;2022-09-09T04:11:58;12.77;;;1.73;;
39016;SDS011;24784;45.582;5.276;2022-09-09T04:14:24;5.72;;;1.58;;
39016;SDS011;24784;45.582;5.276;2022-09-09T04:16:52;3.85;;;1.60;;
39016;SDS011;24784;45.582;5.276;2022-09-09T04:19:18;7.25;;;1.50;;
39016;SDS011;24784;45.582;5.276;2022-09-09T04:21:44;9.52;;;1.40;;
39016;SDS011;24784;45.582;5.276;2022-09-09T04:24:09;5.00;;;1.38;;
39016;SDS011;24784;45.582;5.276;2022-09-09T04:26:35;5.55;;;1.38;;
39016;SDS011;24784;45.582;5.276;2022-09-09T04:29:02;5.45;;;1.48;;
39016;SDS011;24784;45.582;5.276;2022-09-09T04:31:29;3.28;;;1.40;;
39016;SDS011;24784;45.582;5.276;2022-09-09T04:33:55;7.22;;;1.50;;
39016;SDS011;24784;45.582;5.276;2022-09-09T04:36:20;5.35;;;1.60;;
39016;SDS011;24784;45.582;5.276;2022-09-09T04:38:46;4.53;;;2.00;;
39016;SDS011;24784;45.582;5.276;2022-09-09T04:41:13;6.07;;;1.58;;
39016;SDS011;24784;45.582;5.276;2022-09-09T04:43:40;2.45;;;1.50;;
39016;SDS011;24784;45.582;5.276;2022-09-09T04:46:06;5.88;;;1.60;;
39016;SDS011;24784;45.582;5.276;2022-09-09T04:48:31;3.40;;;1.58;;
39016;SDS011;24784;45.582;5.276;2022-09-09T04:50:58;6.20;;;1.33;;
39016;SDS011;24784;45.582;5.276;2022-09-09T04:53:29;6.10;;;1.40;;
39016;SDS011;24784;45.582;5.276;2022-09-09T04:56:06;3.92;;;1.58;;
39016;SDS011;24784;45.582;5.276;2022-09-09T04:58:35;4.05;;;1.45;;
39016;SDS011;24784;45.582;5.276;2022-09-09T05:01:09;4.50;;;1.45;;
39016;SDS011;24784;45.582;5.276;2022-09-09T05:03:37;3.17;;;1.70;;
39016;SDS011;24784;45.582;5.276;2022-09-09T05:06:13;6.50;;;1.73;;
39016;SDS011;24784;45.582;5.276;2022-09-09T05:08:40;4.82;;;1.40;;
39016;SDS011;24784;45.582;5.276;2022-09-09T05:11:17;9.02;;;1.80;;
39016;SDS011;24784;45.582;5.276;2022-09-09T05:13:50;2.88;;;1.33;;
39016;SDS011;24784;45.582;5.276;2022-09-09T05:16:17;4.55;;;1.80;;
39016;SDS011;24784;45.582;5.276;2022-09-09T05:18:43;8.90;;;1.67;;
39016;SDS011;24784;45.582;5.276;2022-09-09T05:21:11;6.00;;;1.70;;
39016;SDS011;24784;45.582;5.276;2022-09-09T05:23:38;3.67;;;1.92;;
39016;SDS011;24784;45.582;5.276;2022-09-09T05:26:04;4.00;;;2.15;;
39016;SDS011;24784;45.582;5.276;2022-09-09T05:28:33;5.13;;;1.70;;
39016;SDS011;24784;45.582;5.276;2022-09-09T05:31:00;9.00;;;1.80;;
39016;SDS011;24784;45.582;5.276;2022-09-09T05:33:32;9.23;;;1.90;;
39016;SDS011;24784;45.582;5.276;2022-09-09T05:36:01;8.73;;;1.65;;
39016;SDS011;24784;45.582;5.276;2022-09-09T05:38:29;6.60;;;1.45;;
39016;SDS011;24784;45.582;5.276;2022-09-09T05:40:55;3.20;;;1.80;;
39016;SDS011;24784;45.582;5.276;2022-09-09T05:43:22;2.15;;;1.77;;
39016;SDS011;24784;45.582;5.276;2022-09-09T05:45:48;5.07;;;1.85;;
39016;SDS011;24784;45.582;5.276;2022-09-09T05:48:27;7.30;;;1.80;;
39016;SDS011;24784;45.582;5.276;2022-09-09T05:50:54;7.65;;;1.80;;
39016;SDS011;24784;45.582;5.276;2022-09-09T05:53:20;6.28;;;1.83;;
39016;SDS011;24784;45.582;5.276;2022-09-09T05:55:46;6.13;;;1.65;;
39016;SDS011;24784;45.582;5.276;2022-09-09T05:58:12;6.32;;;1.50;;
39016;SDS011;24784;45.582;5.276;2022-09-09T06:00:39;6.45;;;1.77;;
39016;SDS011;24784;45.582;5.276;2022-09-09T06:03:05;8.10;;;1.80;;
39016;SDS011;24784;45.582;5.276;2022-09-09T06:05:31;5.85;;;1.90;;
39016;SDS011;24784;45.582;5.276;2022-09-09T06:07:56;7.15;;;1.65;;
39016;SDS011;24784;45.582;5.276;2022-09-09T06:10:22;6.60;;;1.77;;
39016;SDS011;24784;45.582;5.276;2022-09-09T06:12:48;7.97;;;2.22;;
39016;SDS011;24784;45.582;5.276;2022-09-09T06:15:14;5.88;;;2.42;;
39016;SDS011;24784;45.582;5.276;2022-09-09T06:17:39;8.77;;;2.03;;
39016;SDS011;24784;45.582;5.276;2022-09-09T06:20:06;7.63;;;1.88;;
39016;SDS011;24784;45.582;5.276;2022-09-09T06:22:34;5.88;;;2.28;;
39016;SDS011;24784;45.582;5.276;2022-09-09T06:24:59;7.22;;;2.13;;
39016;SDS011;24784;45.582;5.276;2022-09-09T06:27:26;6.82;;;2.30;;
39016;SDS011;24784;45.582;5.276;2022-09-09T06:29:53;7.28;;;1.80;;
39016;SDS011;24784;45.582;5.276;2022-09-09T06:32:19;8.85;;;1.98;;
39016;SDS011;24784;45.582;5.276;2022-09-09T06:34:45;4.53;;;1.98;;
39016;SDS011;24784;45.582;5.276;2022-09-09T06:37:11;8.63;;;1.83;;
39016;SDS011;24784;45.582;5.276;2022-09-09T06:39:37;6.55;;;1.70;;
39016;SDS011;24784;45.582;5.276;2022-09-09T06:42:03;7.18;;;1.98;;
39016;SDS011;24784;45.582;5.276;2022-09-09T06:44:29;5.25;;;1.98;;
39016;SDS011;24784;45.582;5.276;2022-09-09T06:46:56;7.22;;;1.75;;
39016;SDS011;24784;45.582;5.276;2022-09-09T06:49:22;4.85;;;1.75;;
39016;SDS011;24784;45.582;5.276;2022-09-09T06:51:48;6.53;;;1.80;;
39016;SDS011;24784;45.582;5.276;2022-09-09T06:54:14;5.68;;;1.58;;
39016;SDS011;24784;45.582;5.276;2022-09-09T06:56:40;5.70;;;1.70;;
39016;SDS011;24784;45.582;5.276;2022-09-09T06:59:08;4.05;;;1.55;;
39016;SDS011;24784;45.582;5.276;2022-09-09T07:01:39;6.75;;;1.65;;
39016;SDS011;24784;45.582;5.276;2022-09-09T07:04:06;4.22;;;1.70;;
39016;SDS011;24784;45.582;5.276;2022-09-09T07:06:33;2.92;;;1.70;;
39016;SDS011;24784;45.582;5.276;2022-09-09T07:09:05;2.92;;;1.60;;
39016;SDS011;24784;45.582;5.276;2022-09-09T07:11:34;4.75;;;2.28;;
39016;SDS011;24784;45.582;5.276;2022-09-09T07:14:03;5.25;;;1.70;;
39016;SDS011;24784;45.582;5.276;2022-09-09T07:16:29;9.32;;;1.90;;
39016;SDS011;24784;45.582;5.276;2022-09-09T07:18:56;2.72;;;1.75;;
39016;SDS011;24784;45.582;5.276;2022-09-09T07:21:23;4.97;;;1.60;;
39016;SDS011;24784;45.582;5.276;2022-09-09T07:23:51;2.53;;;1.45;;
39016;SDS011;24784;45.582;5.276;2022-09-09T07:26:19;7.65;;;1.90;;
39016;SDS011;24784;45.582;5.276;2022-09-09T07:28:46;2.88;;;1.33;;
39016;SDS011;24784;45.582;5.276;2022-09-09T07:31:14;6.20;;;1.70;;
39016;SDS011;24784;45.582;5.276;2022-09-09T07:33:45;2.65;;;1.55;;
39016;SDS011;24784;45.582;5.276;2022-09-09T07:36:25;4.45;;;1.42;;
39016;SDS011;24784;45.582;5.276;2022-09-09T07:38:54;3.33;;;1.67;;
39016;SDS011;24784;45.582;5.276;2022-09-09T07:43:52;4.50;;;1.67;;
39016;SDS011;24784;45.582;5.276;2022-09-09T07:46:22;4.55;;;1.90;;
39016;SDS011;24784;45.582;5.276;2022-09-09T07:48:54;5.63;;;2.10;;
39016;SDS011;24784;45.582;5.276;2022-09-09T07:51:23;3.72;;;1.90;;
39016;SDS011;24784;45.582;5.276;2022-09-09T07:53:57;7.35;;;2.47;;
39016;SDS011;24784;45.582;5.276;2022-09-09T07:56:25;4.93;;;1.88;;
39016;SDS011;24784;45.582;5.276;2022-09-09T07:58:52;4.43;;;1.52;;
39016;SDS011;24784;45.582;5.276;2022-09-09T08:01:23;6.43;;;1.80;;
39016;SDS011;24784;45.582;5.276;2022-09-09T08:03:54;6.17;;;2.10;;
39016;SDS011;24784;45.582;5.276;2022-09-09T08:06:24;3.38;;;1.60;;
39016;SDS011;24784;45.582;5.276;2022-09-09T08:08:51;5.38;;;1.65;;
39016;SDS011;24784;45.582;5.276;2022-09-09T08:11:19;6.05;;;1.90;;
39016;SDS011;24784;45.582;5.276;2022-09-09T08:13:48;5.00;;;1.60;;
39016;SDS011;24784;45.582;5.276;2022-09-09T08:16:16;5.47;;;1.42;;
39016;SDS011;24784;45.582;5.276;2022-09-09T08:18:43;3.83;;;1.70;;
39016;SDS011;24784;45.582;5.276;2022-09-09T08:21:16;6.15;;;1.60;;
39016;SDS011;24784;45.582;5.276;2022-09-09T08:23:49;5.07;;;1.60;;
39016;SDS011;24784;45.582;5.276;2022-09-09T08:26:24;3.08;;;1.50;;
39016;SDS011;24784;45.582;5.276;2022-09-09T08:28:54;10.90;;;2.53;;
39016;SDS011;24784;45.582;5.276;2022-09-09T08:31:28;7.25;;;1.42;;
39016;SDS011;24784;45.582;5.276;2022-09-09T08:33:59;2.75;;;1.35;;
39016;SDS011;24784;45.582;5.276;2022-09-09T08:36:28;4.40;;;1.40;;
39016;SDS011;24784;45.582;5.276;2022-09-09T08:38:56;7.38;;;1.65;;
39016;SDS011;24784;45.582;5.276;2022-09-09T08:41:35;2.28;;;1.40;;
39016;SDS011;24784;45.582;5.276;2022-09-09T08:52:51;1.58;;;1.17;;
39016;SDS011;24784;45.582;5.276;2022-09-09T08:56:08;6.55;;;1.20;;
39016;SDS011;24784;45.582;5.276;2022-09-09T08:58:28;8.93;;;1.77;;
39016;SDS011;24784;45.582;5.276;2022-09-09T09:09:37;3.90;;;1.05;;
39016;SDS011;24784;45.582;5.276;2022-09-09T09:12:11;2.60;;;1.00;;
39016;SDS011;24784;45.582;5.276;2022-09-09T09:14:45;3.97;;;1.10;;
39016;SDS011;24784;45.582;5.276;2022-09-09T09:17:14;4.95;;;1.15;;
39016;SDS011;24784;45.582;5.276;2022-09-09T09:19:40;4.93;;;1.17;;
39016;SDS011;24784;45.582;5.276;2022-09-09T09:22:18;2.92;;;0.95;;
39016;SDS011;24784;45.582;5.276;2022-09-09T09:30:35;1.98;;;0.80;;
39016;SDS011;24784;45.582;5.276;2022-09-09T09:33:18;4.10;;;1.10;;
39016;SDS011;24784;45.582;5.276;2022-09-09T09:35:52;5.88;;;1.70;;
39016;SDS011;24784;45.582;5.276;2022-09-09T09:38:25;4.43;;;1.10;;
39016;SDS011;24784;45.582;5.276;2022-09-09T09:40:53;3.65;;;1.25;;
39016;SDS011;24784;45.582;5.276;2022-09-09T09:43:29;3.75;;;0.77;;
39016;SDS011;24784;45.582;5.276;2022-09-09T09:45:56;4.22;;;0.88;;
39016;SDS011;24784;45.582;5.276;2022-09-09T09:48:23;4.07;;;0.80;;
39016;SDS011;24784;45.582;5.276;2022-09-09T09:50:51;7.32;;;0.90;;
39016;SDS011;24784;45.582;5.276;2022-09-09T09:58:25;4.70;;;1.20;;
39016;SDS011;24784;45.582;5.276;2022-09-09T10:00:59;3.42;;;0.90;;
39016;SDS011;24784;45.582;5.276;2022-09-09T10:03:27;2.42;;;0.88;;
39016;SDS011;24784;45.582;5.276;2022-09-09T10:05:55;3.63;;;1.27;;
39016;SDS011;24784;45.582;5.276;2022-09-09T10:08:24;5.55;;;0.98;;
39016;SDS011;24784;45.582;5.276;2022-09-09T10:19:30;2.55;;;0.85;;
39016;SDS011;24784;45.582;5.276;2022-09-09T10:25:03;4.72;;;0.88;;
39016;SDS011;24784;45.582;5.276;2022-09-09T10:30:22;1.95;;;0.70;;
39016;SDS011;24784;45.582;5.276;2022-09-09T10:35:46;3.33;;;0.98;;
39016;SDS011;24784;45.582;5.276;2022-09-09T10:41:15;3.63;;;1.00;;
39016;SDS011;24784;45.582;5.276;2022-09-09T10:43:59;4.00;;;1.45;;
39016;SDS011;24784;45.582;5.276;2022-09-09T11:00:14;3.47;;;1.00;;
39016;SDS011;24784;45.582;5.276;2022-09-09T11:02:45;2.15;;;0.70;;
39016;SDS011;24784;45.582;5.276;2022-09-09T11:08:29;4.45;;;0.80;;
39016;SDS011;24784;45.582;5.276;2022-09-09T11:11:02;2.25;;;0.75;;
39016;SDS011;24784;45.582;5.276;2022-09-09T11:16:35;2.00;;;0.82;;
39016;SDS011;24784;45.582;5.276;2022-09-09T11:21:51;3.20;;;0.90;;
39016;SDS011;24784;45.582;5.276;2022-09-09T11:27:05;3.05;;;0.80;;
39016;SDS011;24784;45.582;5.276;2022-09-09T11:39:45;2.20;;;0.70;;
39016;SDS011;24784;45.582;5.276;2022-09-09T11:42:26;2.78;;;0.80;;
39016;SDS011;24784;45.582;5.276;2022-09-09T11:44:52;1.10;;;0.63;;
39016;SDS011;24784;45.582;5.276;2022-09-09T11:47:27;3.92;;;0.95;;
39016;SDS011;24784;45.582;5.276;2022-09-09T11:49:55;4.20;;;0.85;;
39016;SDS011;24784;45.582;5.276;2022-09-09T11:52:36;1.98;;;0.90;;
39016;SDS011;24784;45.582;5.276;2022-09-09T11:58:00;4.25;;;0.90;;
39016;SDS011;24784;45.582;5.276;2022-09-09T12:00:31;0.82;;;0.52;;
39016;SDS011;24784;45.582;5.276;2022-09-09T12:03:02;5.20;;;1.05;;
39016;SDS011;24784;45.582;5.276;2022-09-09T12:05:42;1.48;;;0.63;;
39016;SDS011;24784;45.582;5.276;2022-09-09T12:08:11;2.45;;;0.70;;
39016;SDS011;24784;45.582;5.276;2022-09-09T12:13:22;5.63;;;1.05;;
39016;SDS011;24784;45.582;5.276;2022-09-09T12:15:54;2.53;;;0.70;;
39016;SDS011;24784;45.582;5.276;2022-09-09T12:18:22;2.60;;;0.70;;
39016;SDS011;24784;45.582;5.276;2022-09-09T12:20:55;3.00;;;0.70;;
39016;SDS011;24784;45.582;5.276;2022-09-09T12:28:54;3.03;;;0.70;;
39016;SDS011;24784;45.582;5.276;2022-09-09T12:36:38;1.83;;;0.60;;
39016;SDS011;24784;45.582;5.276;2022-09-09T12:39:10;1.23;;;0.75;;
39016;SDS011;24784;45.582;5.276;2022-09-09T12:41:50;1.77;;;0.70;;
39016;SDS011;24784;45.582;5.276;2022-09-09T12:44:22;3.35;;;0.43;;
39016;SDS011;24784;45.582;5.276;2022-09-09T12:46:53;2.28;;;0.60;;
39016;SDS011;24784;45.582;5.276;2022-09-09T12:51:51;4.00;;;0.70;;
39016;SDS011;24784;45.582;5.276;2022-09-09T12:54:18;4.88;;;0.80;;
39016;SDS011;24784;45.582;5.276;2022-09-09T12:56:45;5.82;;;0.75;;
39016;SDS011;24784;45.582;5.276;2022-09-09T12:59:46;1.67;;;0.45;;
39016;SDS011;24784;45.582;5.276;2022-09-09T13:04:45;2.83;;;0.68;;
39016;SDS011;24784;45.582;5.276;2022-09-09T13:07:12;1.73;;;0.80;;
39016;SDS011;24784;45.582;5.276;2022-09-09T13:09:39;1.52;;;0.52;;
39016;SDS011;24784;45.582;5.276;2022-09-09T13:12:05;1.35;;;0.60;;
39016;SDS011;24784;45.582;5.276;2022-09-09T13:14:38;1.30;;;0.57;;
39016;SDS011;24784;45.582;5.276;2022-09-09T13:17:04;2.97;;;0.80;;
39016;SDS011;24784;45.582;5.276;2022-09-09T13:19:33;2.03;;;0.73;;
39016;SDS011;24784;45.582;5.276;2022-09-09T13:22:14;3.00;;;0.70;;
39016;SDS011;24784;45.582;5.276;2022-09-09T13:24:59;2.35;;;0.52;;
39016;SDS011;24784;45.582;5.276;2022-09-09T13:27:50;3.85;;;0.98;;
39016;SDS011;24784;45.582;5.276;2022-09-09T13:30:25;2.40;;;0.80;;
39016;SDS011;24784;45.582;5.276;2022-09-09T13:33:19;2.92;;;0.77;;
39016;SDS011;24784;45.582;5.276;2022-09-09T13:35:49;2.35;;;0.70;;
39016;SDS011;24784;45.582;5.276;2022-09-09T13:38:15;2.65;;;0.80;;
39016;SDS011;24784;45.582;5.276;2022-09-09T13:40:51;1.42;;;0.60;;
39016;SDS011;24784;45.582;5.276;2022-09-09T13:43:23;1.75;;;0.60;;
39016;SDS011;24784;45.582;5.276;2022-09-09T13:45:57;2.38;;;0.70;;
39016;SDS011;24784;45.582;5.276;2022-09-09T13:48:26;1.20;;;0.60;;
39016;SDS011;24784;45.582;5.276;2022-09-09T13:50:56;4.05;;;0.70;;
39016;SDS011;24784;45.582;5.276;2022-09-09T13:53:24;3.03;;;0.60;;
39016;SDS011;24784;45.582;5.276;2022-09-09T13:55:50;3.10;;;0.68;;
39016;SDS011;24784;45.582;5.276;2022-09-09T13:58:17;3.00;;;0.55;;
39016;SDS011;24784;45.582;5.276;2022-09-09T14:00:47;3.88;;;0.80;;
39016;SDS011;24784;45.582;5.276;2022-09-09T14:03:14;2.40;;;0.55;;
39016;SDS011;24784;45.582;5.276;2022-09-09T14:05:40;2.60;;;0.70;;
39016;SDS011;24784;45.582;5.276;2022-09-09T14:08:07;2.75;;;0.93;;
39016;SDS011;24784;45.582;5.276;2022-09-09T14:13:06;4.40;;;0.77;;
39016;SDS011;24784;45.582;5.276;2022-09-09T14:15:33;1.95;;;0.70;;
39016;SDS011;24784;45.582;5.276;2022-09-09T14:17:59;3.70;;;0.77;;
39016;SDS011;24784;45.582;5.276;2022-09-09T14:20:24;1.65;;;0.85;;
39016;SDS011;24784;45.582;5.276;2022-09-09T14:22:50;3.72;;;1.15;;
39016;SDS011;24784;45.582;5.276;2022-09-09T14:25:16;2.40;;;0.60;;
39016;SDS011;24784;45.582;5.276;2022-09-09T14:27:42;1.83;;;0.70;;
39016;SDS011;24784;45.582;5.276;2022-09-09T14:30:08;1.35;;;0.68;;
39016;SDS011;24784;45.582;5.276;2022-09-09T14:32:34;5.15;;;0.70;;
39016;SDS011;24784;45.582;5.276;2022-09-09T14:35:00;3.28;;;0.70;;
39016;SDS011;24784;45.582;5.276;2022-09-09T14:37:26;1.27;;;0.70;;
39016;SDS011;24784;45.582;5.276;2022-09-09T14:39:53;1.48;;;0.55;;
39016;SDS011;24784;45.582;5.276;2022-09-09T14:42:19;4.07;;;0.68;;
39016;SDS011;24784;45.582;5.276;2022-09-09T14:44:47;1.27;;;0.60;;
39016;SDS011;24784;45.582;5.276;2022-09-09T14:47:12;4.28;;;0.75;;
39016;SDS011;24784;45.582;5.276;2022-09-09T14:49:38;1.48;;;0.70;;
39016;SDS011;24784;45.582;5.276;2022-09-09T14:52:04;1.05;;;0.50;;
39016;SDS011;24784;45.582;5.276;2022-09-09T14:54:30;3.50;;;0.60;;
39016;SDS011;24784;45.582;5.276;2022-09-09T14:56:57;3.60;;;0.70;;
39016;SDS011;24784;45.582;5.276;2022-09-09T14:59:22;5.45;;;0.60;;
39016;SDS011;24784;45.582;5.276;2022-09-09T15:01:48;5.47;;;0.60;;
39016;SDS011;24784;45.582;5.276;2022-09-09T15:04:14;5.85;;;0.82;;
39016;SDS011;24784;45.582;5.276;2022-09-09T15:06:41;3.17;;;1.08;;
39016;SDS011;24784;45.582;5.276;2022-09-09T15:09:09;5.50;;;0.60;;
39016;SDS011;24784;45.582;5.276;2022-09-09T15:11:36;2.50;;;0.85;;
39016;SDS011;24784;45.582;5.276;2022-09-09T15:14:03;4.72;;;1.20;;
39016;SDS011;24784;45.582;5.276;2022-09-09T15:16:30;2.47;;;0.80;;
39016;SDS011;24784;45.582;5.276;2022-09-09T15:18:58;2.45;;;0.85;;
39016;SDS011;24784;45.582;5.276;2022-09-09T15:21:32;3.92;;;0.40;;
39016;SDS011;24784;45.582;5.276;2022-09-09T15:23:59;6.72;;;0.93;;
39016;SDS011;24784;45.582;5.276;2022-09-09T15:26:25;1.48;;;0.65;;
39016;SDS011;24784;45.582;5.276;2022-09-09T15:28:52;2.88;;;0.63;;
39016;SDS011;24784;45.582;5.276;2022-09-09T15:31:20;2.50;;;0.90;;
39016;SDS011;24784;45.582;5.276;2022-09-09T15:33:47;2.22;;;0.77;;
39016;SDS011;24784;45.582;5.276;2022-09-09T15:36:23;1.38;;;0.60;;
39016;SDS011;24784;45.582;5.276;2022-09-09T15:38:51;2.00;;;1.02;;
39016;SDS011;24784;45.582;5.276;2022-09-09T15:41:18;3.40;;;0.60;;
39016;SDS011;24784;45.582;5.276;2022-09-09T15:43:48;1.75;;;0.70;;
39016;SDS011;24784;45.582;5.276;2022-09-09T15:49:07;2.38;;;0.82;;
39016;SDS011;24784;45.582;5.276;2022-09-09T15:51:35;2.08;;;0.63;;
39016;SDS011;24784;45.582;5.276;2022-09-09T15:54:07;2.50;;;0.65;;
39016;SDS011;24784;45.582;5.276;2022-09-09T15:56:33;3.17;;;0.70;;
39016;SDS011;24784;45.582;5.276;2022-09-09T15:58:59;3.70;;;1.00;;
39016;SDS011;24784;45.582;5.276;2022-09-09T16:01:28;3.35;;;0.80;;
39016;SDS011;24784;45.582;5.276;2022-09-09T16:03:56;4.85;;;0.70;;
39016;SDS011;24784;45.582;5.276;2022-09-09T16:06:23;5.65;;;0.77;;
39016;SDS011;24784;45.582;5.276;2022-09-09T16:08:50;2.83;;;0.80;;
39016;SDS011;24784;45.582;5.276;2022-09-09T16:11:22;3.30;;;0.80;;
39016;SDS011;24784;45.582;5.276;2022-09-09T16:13:52;2.35;;;0.70;;
39016;SDS011;24784;45.582;5.276;2022-09-09T16:16:19;1.50;;;0.55;;
39016;SDS011;24784;45.582;5.276;2022-09-09T16:18:48;1.50;;;0.68;;
39016;SDS011;24784;45.582;5.276;2022-09-09T16:21:26;2.17;;;0.65;;
39016;SDS011;24784;45.582;5.276;2022-09-09T16:23:54;3.80;;;1.05;;
39016;SDS011;24784;45.582;5.276;2022-09-09T16:26:22;1.10;;;0.60;;
39016;SDS011;24784;45.582;5.276;2022-09-09T16:28:48;2.78;;;0.60;;
39016;SDS011;24784;45.582;5.276;2022-09-09T16:31:15;0.68;;;0.43;;
39016;SDS011;24784;45.582;5.276;2022-09-09T16:33:43;5.88;;;0.88;;
39016;SDS011;24784;45.582;5.276;2022-09-09T16:36:16;2.55;;;0.68;;
39016;SDS011;24784;45.582;5.276;2022-09-09T16:38:44;3.50;;;0.90;;
39016;SDS011;24784;45.582;5.276;2022-09-09T16:41:10;4.82;;;0.80;;
39016;SDS011;24784;45.582;5.276;2022-09-09T16:43:37;8.93;;;1.35;;
39016;SDS011;24784;45.582;5.276;2022-09-09T16:46:12;6.13;;;0.80;;
39016;SDS011;24784;45.582;5.276;2022-09-09T16:48:43;1.08;;;0.70;;
39016;SDS011;24784;45.582;5.276;2022-09-09T16:53:46;4.78;;;0.93;;
39016;SDS011;24784;45.582;5.276;2022-09-09T16:56:16;2.65;;;0.75;;
39016;SDS011;24784;45.582;5.276;2022-09-09T16:58:48;4.10;;;0.80;;
39016;SDS011;24784;45.582;5.276;2022-09-09T17:01:15;3.15;;;0.80;;
39016;SDS011;24784;45.582;5.276;2022-09-09T17:03:41;3.15;;;0.80;;
39016;SDS011;24784;45.582;5.276;2022-09-09T17:06:13;3.58;;;1.23;;
39016;SDS011;24784;45.582;5.276;2022-09-09T17:08:40;4.60;;;1.38;;
39016;SDS011;24784;45.582;5.276;2022-09-09T17:11:16;3.45;;;0.80;;
39016;SDS011;24784;45.582;5.276;2022-09-09T17:13:44;3.17;;;0.73;;
39016;SDS011;24784;45.582;5.276;2022-09-09T17:16:12;3.78;;;0.80;;
39016;SDS011;24784;45.582;5.276;2022-09-09T17:18:39;3.22;;;0.80;;
39016;SDS011;24784;45.582;5.276;2022-09-09T17:21:15;1.65;;;0.73;;
39016;SDS011;24784;45.582;5.276;2022-09-09T17:23:43;2.15;;;0.85;;
39016;SDS011;24784;45.582;5.276;2022-09-09T17:26:11;3.78;;;0.90;;
39016;SDS011;24784;45.582;5.276;2022-09-09T17:28:40;2.90;;;0.88;;
39016;SDS011;24784;45.582;5.276;2022-09-09T17:31:06;4.28;;;0.80;;
39016;SDS011;24784;45.582;5.276;2022-09-09T17:33:35;2.92;;;0.70;;